sensor_id;sensor_type;location;lat;lon;timestamp;temperature;humidity
30186;DHT22;31152;49.190;8.122;2022-10-19T00:01:20;15.70;99.90
30186;DHT22;31152;49.190;8.122;2022-10-19T00:03:50;15.70;99.90
30186;DHT22;31152;49.190;8.122;2022-10-19T00:06:26;15.70;99.90
30186;DHT22;31152;49.190;8.122;2022-10-19T00:09:14;15.80;99.90
30186;DHT22;31152;49.190;8.122;2022-10-19T00:11:46;15.80;99.90
30186;DHT22;31152;49.190;8.122;2022-10-19T00:14:19;15.80;99.90
30186;DHT22;31152;49.190;8.122;2022-10-19T00:16:48;15.80;99.90
30186;DHT22;31152;49.190;8.122;2022-10-19T00:19:21;15.80;99.90
30186;DHT22;31152;49.190;8.122;2022-10-19T00:21:51;15.90;99.90
30186;DHT22;31152;49.190;8.122;2022-10-19T00:24:20;15.90;99.90
30186;DHT22;31152;49.190;8.122;2022-10-19T00:26:47;15.90;99.90
30186;DHT22;31152;49.190;8.122;2022-10-19T00:29:16;15.90;99.90
30186;DHT22;31152;49.190;8.122;2022-10-19T00:31:43;15.90;99.90
30186;DHT22;31152;49.190;8.122;2022-10-19T00:34:12;15.90;99.90
30186;DHT22;31152;49.190;8.122;2022-10-19T00:36:40;15.90;99.90
30186;DHT22;31152;49.190;8.122;2022-10-19T00:39:12;16.00;99.90
30186;DHT22;31152;49.190;8.122;2022-10-19T00:41:40;16.00;99.90
30186;DHT22;31152;49.190;8.122;2022-10-19T00:46:44;16.00;99.90
30186;DHT22;31152;49.190;8.122;2022-10-19T00:49:36;16.00;99.90
30186;DHT22;31152;49.190;8.122;2022-10-19T00:52:07;16.00;99.90
30186;DHT22;31152;49.190;8.122;2022-10-19T00:54:37;15.90;99.90
30186;DHT22;31152;49.190;8.122;2022-10-19T00:57:06;15.90;99.90
30186;DHT22;31152;49.190;8.122;2022-10-19T00:59:33;15.90;99.90
30186;DHT22;31152;49.190;8.122;2022-10-19T01:02:03;15.90;99.90
30186;DHT22;31152;49.190;8.122;2022-10-19T01:04:35;15.90;99.90
30186;DHT22;31152;49.190;8.122;2022-10-19T01:07:03;15.90;99.90
30186;DHT22;31152;49.190;8.122;2022-10-19T01:09:33;15.80;99.90
30186;DHT22;31152;49.190;8.122;2022-10-19T01:17:49;15.80;99.90
30186;DHT22;31152;49.190;8.122;2022-10-19T01:29:28;15.80;99.90
30186;DHT22;31152;49.190;8.122;2022-10-19T01:32:15;15.80;99.90
30186;DHT22;31152;49.190;8.122;2022-10-19T01:34:56;15.90;99.90
30186;DHT22;31152;49.190;8.122;2022-10-19T01:37:47;15.80;99.90
30186;DHT22;31152;49.190;8.122;2022-10-19T01:40:30;15.80;99.90
30186;DHT22;31152;49.190;8.122;2022-10-19T01:45:29;15.80;99.90
30186;DHT22;31152;49.190;8.122;2022-10-19T01:48:19;15.90;99.90
30186;DHT22;31152;49.190;8.122;2022-10-19T01:50:56;15.90;99.90
30186;DHT22;31152;49.190;8.122;2022-10-19T01:53:26;15.90;99.90
30186;DHT22;31152;49.190;8.122;2022-10-19T01:55:56;15.90;99.90
30186;DHT22;31152;49.190;8.122;2022-10-19T01:58:27;15.80;99.90
30186;DHT22;31152;49.190;8.122;2022-10-19T02:00:56;15.90;99.90
30186;DHT22;31152;49.190;8.122;2022-10-19T02:03:27;15.80;99.90
30186;DHT22;31152;49.190;8.122;2022-10-19T02:05:55;15.80;99.90
30186;DHT22;31152;49.190;8.122;2022-10-19T02:08:30;15.80;99.90
30186;DHT22;31152;49.190;8.122;2022-10-19T02:11:02;15.80;99.90
30186;DHT22;31152;49.190;8.122;2022-10-19T02:13:30;15.80;99.90
30186;DHT22;31152;49.190;8.122;2022-10-19T02:16:00;15.80;99.90
30186;DHT22;31152;49.190;8.122;2022-10-19T02:18:36;15.70;99.90
30186;DHT22;31152;49.190;8.122;2022-10-19T02:21:05;15.70;99.90
30186;DHT22;31152;49.190;8.122;2022-10-19T02:23:33;15.60;99.90
30186;DHT22;31152;49.190;8.122;2022-10-19T02:25:59;15.70;99.90
30186;DHT22;31152;49.190;8.122;2022-10-19T02:28:27;15.60;99.90
30186;DHT22;31152;49.190;8.122;2022-10-19T02:30:56;15.60;99.90
30186;DHT22;31152;49.190;8.122;2022-10-19T02:33:24;15.50;99.90
30186;DHT22;31152;49.190;8.122;2022-10-19T02:35:53;15.50;99.90
30186;DHT22;31152;49.190;8.122;2022-10-19T02:38:21;15.50;99.90
30186;DHT22;31152;49.190;8.122;2022-10-19T02:43:47;15.40;99.90
30186;DHT22;31152;49.190;8.122;2022-10-19T02:46:43;15.40;99.90
30186;DHT22;31152;49.190;8.122;2022-10-19T02:49:12;15.30;99.90
30186;DHT22;31152;49.190;8.122;2022-10-19T02:54:23;15.20;99.90
30186;DHT22;31152;49.190;8.122;2022-10-19T02:56:50;15.20;99.90
30186;DHT22;31152;49.190;8.122;2022-10-19T02:59:19;15.20;99.90
30186;DHT22;31152;49.190;8.122;2022-10-19T03:01:48;15.10;99.90
30186;DHT22;31152;49.190;8.122;2022-10-19T03:04:15;15.10;99.90
30186;DHT22;31152;49.190;8.122;2022-10-19T03:06:45;15.10;99.90
30186;DHT22;31152;49.190;8.122;2022-10-19T03:09:11;15.00;99.90
30186;DHT22;31152;49.190;8.122;2022-10-19T03:11:38;14.90;99.90
30186;DHT22;31152;49.190;8.122;2022-10-19T03:14:05;14.90;99.90
30186;DHT22;31152;49.190;8.122;2022-10-19T03:16:31;14.90;99.90
30186;DHT22;31152;49.190;8.122;2022-10-19T03:18:58;14.90;99.90
30186;DHT22;31152;49.190;8.122;2022-10-19T03:21:25;14.80;99.90
30186;DHT22;31152;49.190;8.122;2022-10-19T03:23:51;14.80;99.90
30186;DHT22;31152;49.190;8.122;2022-10-19T03:26:18;14.70;99.90
30186;DHT22;31152;49.190;8.122;2022-10-19T03:28:45;14.70;99.90
30186;DHT22;31152;49.190;8.122;2022-10-19T03:31:12;14.70;99.90
30186;DHT22;31152;49.190;8.122;2022-10-19T03:33:38;14.70;99.90
30186;DHT22;31152;49.190;8.122;2022-10-19T03:36:35;14.70;99.90
30186;DHT22;31152;49.190;8.122;2022-10-19T03:39:09;14.60;99.90
30186;DHT22;31152;49.190;8.122;2022-10-19T03:41:37;14.60;99.90
30186;DHT22;31152;49.190;8.122;2022-10-19T03:44:05;14.70;99.90
30186;DHT22;31152;49.190;8.122;2022-10-19T03:46:32;14.70;99.90
30186;DHT22;31152;49.190;8.122;2022-10-19T03:48:59;14.70;99.90
30186;DHT22;31152;49.190;8.122;2022-10-19T03:51:28;14.70;99.90
30186;DHT22;31152;49.190;8.122;2022-10-19T03:54:00;14.70;99.90
30186;DHT22;31152;49.190;8.122;2022-10-19T03:56:29;14.70;99.90
30186;DHT22;31152;49.190;8.122;2022-10-19T03:59:01;14.70;99.90
30186;DHT22;31152;49.190;8.122;2022-10-19T04:01:34;14.80;99.90
30186;DHT22;31152;49.190;8.122;2022-10-19T04:04:08;14.80;99.90
30186;DHT22;31152;49.190;8.122;2022-10-19T04:06:38;14.80;99.90
30186;DHT22;31152;49.190;8.122;2022-10-19T04:09:06;14.80;99.90
30186;DHT22;31152;49.190;8.122;2022-10-19T04:11:34;14.80;99.90
30186;DHT22;31152;49.190;8.122;2022-10-19T04:14:02;14.80;99.90
30186;DHT22;31152;49.190;8.122;2022-10-19T04:16:32;14.80;99.90
30186;DHT22;31152;49.190;8.122;2022-10-19T04:19:01;14.70;99.90
30186;DHT22;31152;49.190;8.122;2022-10-19T04:21:29;14.70;99.90
30186;DHT22;31152;49.190;8.122;2022-10-19T04:26:25;14.70;99.90
30186;DHT22;31152;49.190;8.122;2022-10-19T04:28:52;14.70;99.90
30186;DHT22;31152;49.190;8.122;2022-10-19T04:31:19;14.70;99.90
30186;DHT22;31152;49.190;8.122;2022-10-19T04:33:46;14.60;99.90
30186;DHT22;31152;49.190;8.122;2022-10-19T04:36:13;14.60;99.90
30186;DHT22;31152;49.190;8.122;2022-10-19T04:38:39;14.60;99.90
30186;DHT22;31152;49.190;8.122;2022-10-19T04:41:17;14.60;99.90
30186;DHT22;31152;49.190;8.122;2022-10-19T04:43:44;14.60;99.90
30186;DHT22;31152;49.190;8.122;2022-10-19T04:46:14;14.60;99.90
30186;DHT22;31152;49.190;8.122;2022-10-19T04:48:41;14.60;99.90
30186;DHT22;31152;49.190;8.122;2022-10-19T04:51:09;14.60;99.90
30186;DHT22;31152;49.190;8.122;2022-10-19T04:53:37;14.60;99.90
30186;DHT22;31152;49.190;8.122;2022-10-19T04:56:06;14.50;99.90
30186;DHT22;31152;49.190;8.122;2022-10-19T04:58:34;14.50;99.90
30186;DHT22;31152;49.190;8.122;2022-10-19T05:01:12;14.50;99.90
30186;DHT22;31152;49.190;8.122;2022-10-19T05:03:42;14.50;99.90
30186;DHT22;31152;49.190;8.122;2022-10-19T05:06:10;14.50;99.90
30186;DHT22;31152;49.190;8.122;2022-10-19T05:08:37;14.40;99.90
30186;DHT22;31152;49.190;8.122;2022-10-19T05:11:12;14.40;99.90
30186;DHT22;31152;49.190;8.122;2022-10-19T05:13:40;14.40;99.90
30186;DHT22;31152;49.190;8.122;2022-10-19T05:16:10;14.50;99.90
30186;DHT22;31152;49.190;8.122;2022-10-19T05:18:38;14.40;99.90
30186;DHT22;31152;49.190;8.122;2022-10-19T05:21:09;14.50;99.90
30186;DHT22;31152;49.190;8.122;2022-10-19T05:23:37;14.50;99.90
30186;DHT22;31152;49.190;8.122;2022-10-19T05:26:05;14.50;99.90
30186;DHT22;31152;49.190;8.122;2022-10-19T05:28:33;14.50;99.90
30186;DHT22;31152;49.190;8.122;2022-10-19T05:31:15;14.50;99.90
30186;DHT22;31152;49.190;8.122;2022-10-19T05:33:43;14.50;99.90
30186;DHT22;31152;49.190;8.122;2022-10-19T05:36:18;14.50;99.90
30186;DHT22;31152;49.190;8.122;2022-10-19T05:38:49;14.50;99.90
30186;DHT22;31152;49.190;8.122;2022-10-19T05:41:16;14.50;99.90
30186;DHT22;31152;49.190;8.122;2022-10-19T05:43:43;14.60;99.90
30186;DHT22;31152;49.190;8.122;2022-10-19T05:46:15;14.50;99.90
30186;DHT22;31152;49.190;8.122;2022-10-19T05:48:44;14.60;99.90
30186;DHT22;31152;49.190;8.122;2022-10-19T05:51:14;14.60;99.90
30186;DHT22;31152;49.190;8.122;2022-10-19T05:53:41;14.60;99.90
30186;DHT22;31152;49.190;8.122;2022-10-19T05:56:11;14.60;99.90
30186;DHT22;31152;49.190;8.122;2022-10-19T05:58:42;14.60;99.90
30186;DHT22;31152;49.190;8.122;2022-10-19T06:01:08;14.50;99.90
30186;DHT22;31152;49.190;8.122;2022-10-19T06:03:35;14.50;99.90
30186;DHT22;31152;49.190;8.122;2022-10-19T06:06:03;14.50;99.90
30186;DHT22;31152;49.190;8.122;2022-10-19T06:08:31;14.50;99.90
30186;DHT22;31152;49.190;8.122;2022-10-19T06:11:06;14.50;99.90
30186;DHT22;31152;49.190;8.122;2022-10-19T06:13:33;14.50;99.90
30186;DHT22;31152;49.190;8.122;2022-10-19T06:16:04;14.50;99.90
30186;DHT22;31152;49.190;8.122;2022-10-19T06:18:31;14.60;99.90
30186;DHT22;31152;49.190;8.122;2022-10-19T06:21:02;14.60;99.90
30186;DHT22;31152;49.190;8.122;2022-10-19T06:23:33;14.60;99.90
30186;DHT22;31152;49.190;8.122;2022-10-19T06:26:11;14.60;99.90
30186;DHT22;31152;49.190;8.122;2022-10-19T06:28:39;14.60;99.90
30186;DHT22;31152;49.190;8.122;2022-10-19T06:31:06;14.60;99.90
30186;DHT22;31152;49.190;8.122;2022-10-19T06:33:35;14.60;99.90
30186;DHT22;31152;49.190;8.122;2022-10-19T06:36:06;14.60;99.90
30186;DHT22;31152;49.190;8.122;2022-10-19T06:38:33;14.60;99.90
30186;DHT22;31152;49.190;8.122;2022-10-19T06:41:00;14.60;99.90
30186;DHT22;31152;49.190;8.122;2022-10-19T06:43:27;14.60;99.90
30186;DHT22;31152;49.190;8.122;2022-10-19T06:45:54;14.60;99.90
30186;DHT22;31152;49.190;8.122;2022-10-19T06:48:21;14.70;99.90
30186;DHT22;31152;49.190;8.122;2022-10-19T06:50:59;14.60;99.90
30186;DHT22;31152;49.190;8.122;2022-10-19T06:53:28;14.70;99.90
30186;DHT22;31152;49.190;8.122;2022-10-19T06:56:00;14.70;99.90
30186;DHT22;31152;49.190;8.122;2022-10-19T06:58:28;14.70;99.90
30186;DHT22;31152;49.190;8.122;2022-10-19T07:00:59;14.70;99.90
30186;DHT22;31152;49.190;8.122;2022-10-19T07:03:27;14.70;99.90
30186;DHT22;31152;49.190;8.122;2022-10-19T07:05:56;14.70;99.90
30186;DHT22;31152;49.190;8.122;2022-10-19T07:08:23;14.70;99.90
30186;DHT22;31152;49.190;8.122;2022-10-19T07:10:55;14.70;99.90
30186;DHT22;31152;49.190;8.122;2022-10-19T07:13:26;14.70;99.90
30186;DHT22;31152;49.190;8.122;2022-10-19T07:16:04;14.70;99.90
30186;DHT22;31152;49.190;8.122;2022-10-19T07:18:37;14.70;99.90
30186;DHT22;31152;49.190;8.122;2022-10-19T07:21:10;14.70;99.90
30186;DHT22;31152;49.190;8.122;2022-10-19T07:23:41;14.70;99.90
30186;DHT22;31152;49.190;8.122;2022-10-19T07:26:22;14.80;99.90
30186;DHT22;31152;49.190;8.122;2022-10-19T07:28:49;14.80;99.90
30186;DHT22;31152;49.190;8.122;2022-10-19T07:31:18;14.80;99.90
30186;DHT22;31152;49.190;8.122;2022-10-19T07:33:50;14.80;99.90
30186;DHT22;31152;49.190;8.122;2022-10-19T07:36:17;14.80;99.90
30186;DHT22;31152;49.190;8.122;2022-10-19T07:38:46;14.80;99.90
30186;DHT22;31152;49.190;8.122;2022-10-19T07:41:17;14.80;99.90
30186;DHT22;31152;49.190;8.122;2022-10-19T07:43:46;14.80;99.90
30186;DHT22;31152;49.190;8.122;2022-10-19T07:46:18;14.80;99.90
30186;DHT22;31152;49.190;8.122;2022-10-19T07:48:45;14.70;99.90
30186;DHT22;31152;49.190;8.122;2022-10-19T07:51:15;14.70;99.90
30186;DHT22;31152;49.190;8.122;2022-10-19T07:53:43;14.70;99.90
30186;DHT22;31152;49.190;8.122;2022-10-19T07:56:17;14.70;99.90
30186;DHT22;31152;49.190;8.122;2022-10-19T07:58:44;14.70;99.90
30186;DHT22;31152;49.190;8.122;2022-10-19T08:01:11;14.70;99.90
30186;DHT22;31152;49.190;8.122;2022-10-19T08:03:41;14.70;99.90
30186;DHT22;31152;49.190;8.122;2022-10-19T08:06:32;14.70;99.90
30186;DHT22;31152;49.190;8.122;2022-10-19T08:08:59;14.70;99.90
30186;DHT22;31152;49.190;8.122;2022-10-19T08:11:34;14.70;99.90
30186;DHT22;31152;49.190;8.122;2022-10-19T08:14:00;14.70;99.90
30186;DHT22;31152;49.190;8.122;2022-10-19T08:16:37;14.70;99.90
30186;DHT22;31152;49.190;8.122;2022-10-19T08:19:08;14.70;99.90
30186;DHT22;31152;49.190;8.122;2022-10-19T08:21:39;14.80;99.90
30186;DHT22;31152;49.190;8.122;2022-10-19T08:24:07;14.80;99.90
30186;DHT22;31152;49.190;8.122;2022-10-19T08:26:36;14.80;99.90
30186;DHT22;31152;49.190;8.122;2022-10-19T08:31:35;14.80;99.90
30186;DHT22;31152;49.190;8.122;2022-10-19T08:34:02;14.80;99.90
30186;DHT22;31152;49.190;8.122;2022-10-19T08:36:29;14.80;99.90
30186;DHT22;31152;49.190;8.122;2022-10-19T08:39:02;14.80;99.90
30186;DHT22;31152;49.190;8.122;2022-10-19T08:49:57;14.90;99.90
30186;DHT22;31152;49.190;8.122;2022-10-19T08:52:32;14.90;99.90
30186;DHT22;31152;49.190;8.122;2022-10-19T08:55:11;14.90;99.90
30186;DHT22;31152;49.190;8.122;2022-10-19T08:57:59;15.00;99.90
30186;DHT22;31152;49.190;8.122;2022-10-19T09:09:40;15.00;99.90
30186;DHT22;31152;49.190;8.122;2022-10-19T09:12:11;15.00;99.90
30186;DHT22;31152;49.190;8.122;2022-10-19T09:17:14;15.00;99.90
30186;DHT22;31152;49.190;8.122;2022-10-19T09:19:44;15.10;99.90
30186;DHT22;31152;49.190;8.122;2022-10-19T09:22:31;15.10;99.90
30186;DHT22;31152;49.190;8.122;2022-10-19T09:27:40;15.10;99.90
30186;DHT22;31152;49.190;8.122;2022-10-19T09:30:20;15.10;99.90
30186;DHT22;31152;49.190;8.122;2022-10-19T09:32:58;15.10;99.90
30186;DHT22;31152;49.190;8.122;2022-10-19T09:35:36;15.10;99.90
30186;DHT22;31152;49.190;8.122;2022-10-19T09:38:05;15.10;99.90
30186;DHT22;31152;49.190;8.122;2022-10-19T09:40:34;15.10;99.90
30186;DHT22;31152;49.190;8.122;2022-10-19T09:43:07;15.20;99.90
30186;DHT22;31152;49.190;8.122;2022-10-19T09:45:58;15.20;99.90
30186;DHT22;31152;49.190;8.122;2022-10-19T09:48:39;15.20;99.90
30186;DHT22;31152;49.190;8.122;2022-10-19T09:51:12;15.30;99.90
30186;DHT22;31152;49.190;8.122;2022-10-19T09:53:49;15.40;99.90
30186;DHT22;31152;49.190;8.122;2022-10-19T09:56:26;15.40;99.90
30186;DHT22;31152;49.190;8.122;2022-10-19T09:58:55;15.50;99.90
30186;DHT22;31152;49.190;8.122;2022-10-19T10:01:38;15.50;99.90
30186;DHT22;31152;49.190;8.122;2022-10-19T10:04:14;15.50;99.90
30186;DHT22;31152;49.190;8.122;2022-10-19T10:06:43;15.50;99.90
30186;DHT22;31152;49.190;8.122;2022-10-19T10:09:17;15.50;99.90
30186;DHT22;31152;49.190;8.122;2022-10-19T10:11:46;15.50;99.90
30186;DHT22;31152;49.190;8.122;2022-10-19T10:14:31;15.50;99.90
30186;DHT22;31152;49.190;8.122;2022-10-19T10:17:06;15.50;99.90
30186;DHT22;31152;49.190;8.122;2022-10-19T10:22:51;15.50;99.90
30186;DHT22;31152;49.190;8.122;2022-10-19T10:25:18;15.60;99.90
30186;DHT22;31152;49.190;8.122;2022-10-19T10:28:18;15.50;99.90
30186;DHT22;31152;49.190;8.122;2022-10-19T10:30:46;15.50;99.90
30186;DHT22;31152;49.190;8.122;2022-10-19T10:33:16;15.60;99.90
30186;DHT22;31152;49.190;8.122;2022-10-19T10:36:08;15.60;99.90
30186;DHT22;31152;49.190;8.122;2022-10-19T10:41:20;15.60;99.90
30186;DHT22;31152;49.190;8.122;2022-10-19T10:44:01;15.60;99.90
30186;DHT22;31152;49.190;8.122;2022-10-19T10:46:56;15.60;99.90
30186;DHT22;31152;49.190;8.122;2022-10-19T10:49:44;15.70;99.90
30186;DHT22;31152;49.190;8.122;2022-10-19T10:52:18;15.70;99.90
30186;DHT22;31152;49.190;8.122;2022-10-19T10:57:46;15.70;99.90
30186;DHT22;31152;49.190;8.122;2022-10-19T11:00:20;15.70;99.90
30186;DHT22;31152;49.190;8.122;2022-10-19T11:03:19;15.70;99.90
30186;DHT22;31152;49.190;8.122;2022-10-19T11:05:50;15.70;99.90
30186;DHT22;31152;49.190;8.122;2022-10-19T11:08:32;15.70;99.90
30186;DHT22;31152;49.190;8.122;2022-10-19T11:11:19;15.70;99.90
30186;DHT22;31152;49.190;8.122;2022-10-19T11:16:42;15.70;99.90
30186;DHT22;31152;49.190;8.122;2022-10-19T11:19:15;15.80;99.90
30186;DHT22;31152;49.190;8.122;2022-10-19T11:21:56;15.80;99.90
30186;DHT22;31152;49.190;8.122;2022-10-19T11:24:41;15.80;99.90
30186;DHT22;31152;49.190;8.122;2022-10-19T11:29:58;15.90;99.90
30186;DHT22;31152;49.190;8.122;2022-10-19T11:32:34;15.90;99.90
30186;DHT22;31152;49.190;8.122;2022-10-19T11:35:19;16.00;99.90
30186;DHT22;31152;49.190;8.122;2022-10-19T11:49:26;16.00;99.90
30186;DHT22;31152;49.190;8.122;2022-10-19T11:52:08;16.00;99.90
30186;DHT22;31152;49.190;8.122;2022-10-19T11:54:58;16.10;99.90
30186;DHT22;31152;49.190;8.122;2022-10-19T12:04:02;16.10;99.90
30186;DHT22;31152;49.190;8.122;2022-10-19T12:10:01;16.10;99.90
30186;DHT22;31152;49.190;8.122;2022-10-19T12:12:37;16.20;99.90
30186;DHT22;31152;49.190;8.122;2022-10-19T12:15:25;16.20;99.90
30186;DHT22;31152;49.190;8.122;2022-10-19T12:17:58;16.30;99.90
30186;DHT22;31152;49.190;8.122;2022-10-19T12:20:33;16.40;99.90
30186;DHT22;31152;49.190;8.122;2022-10-19T12:23:20;16.40;99.90
30186;DHT22;31152;49.190;8.122;2022-10-19T12:25:48;16.50;99.90
30186;DHT22;31152;49.190;8.122;2022-10-19T12:28:37;16.60;99.90
30186;DHT22;31152;49.190;8.122;2022-10-19T12:31:05;16.70;99.90
30186;DHT22;31152;49.190;8.122;2022-10-19T12:44:23;17.00;99.90
30186;DHT22;31152;49.190;8.122;2022-10-19T12:46:57;17.10;99.90
30186;DHT22;31152;49.190;8.122;2022-10-19T12:52:02;17.10;99.90
30186;DHT22;31152;49.190;8.122;2022-10-19T12:54:34;17.20;99.90
30186;DHT22;31152;49.190;8.122;2022-10-19T12:57:03;17.20;99.90
30186;DHT22;31152;49.190;8.122;2022-10-19T12:59:36;17.30;99.90
30186;DHT22;31152;49.190;8.122;2022-10-19T13:02:14;17.40;99.90
30186;DHT22;31152;49.190;8.122;2022-10-19T13:04:53;17.50;99.90
30186;DHT22;31152;49.190;8.122;2022-10-19T13:07:20;17.60;99.90
30186;DHT22;31152;49.190;8.122;2022-10-19T13:09:47;17.60;99.90
30186;DHT22;31152;49.190;8.122;2022-10-19T13:15:00;17.60;99.90
30186;DHT22;31152;49.190;8.122;2022-10-19T13:17:44;17.60;99.90
30186;DHT22;31152;49.190;8.122;2022-10-19T13:22:51;17.50;99.90
30186;DHT22;31152;49.190;8.122;2022-10-19T13:25:39;17.50;99.90
30186;DHT22;31152;49.190;8.122;2022-10-19T13:33:40;17.40;99.90
30186;DHT22;31152;49.190;8.122;2022-10-19T13:36:10;17.50;99.90
30186;DHT22;31152;49.190;8.122;2022-10-19T13:41:25;17.50;99.90
30186;DHT22;31152;49.190;8.122;2022-10-19T13:44:02;17.50;99.90
30186;DHT22;31152;49.190;8.122;2022-10-19T13:49:35;17.50;99.90
30186;DHT22;31152;49.190;8.122;2022-10-19T14:09:30;17.60;99.90
30186;DHT22;31152;49.190;8.122;2022-10-19T14:12:06;17.60;99.90
30186;DHT22;31152;49.190;8.122;2022-10-19T14:14:41;17.60;99.90
30186;DHT22;31152;49.190;8.122;2022-10-19T14:17:22;17.60;99.90
30186;DHT22;31152;49.190;8.122;2022-10-19T14:19:55;17.70;99.90
30186;DHT22;31152;49.190;8.122;2022-10-19T14:22:33;17.70;99.90
30186;DHT22;31152;49.190;8.122;2022-10-19T14:25:26;17.80;99.90
30186;DHT22;31152;49.190;8.122;2022-10-19T14:28:05;17.90;99.90
30186;DHT22;31152;49.190;8.122;2022-10-19T14:30:34;18.00;99.90
30186;DHT22;31152;49.190;8.122;2022-10-19T14:33:07;18.00;99.90
30186;DHT22;31152;49.190;8.122;2022-10-19T14:35:39;18.00;99.90
30186;DHT22;31152;49.190;8.122;2022-10-19T14:38:08;17.90;99.90
30186;DHT22;31152;49.190;8.122;2022-10-19T14:40:44;17.90;99.90
30186;DHT22;31152;49.190;8.122;2022-10-19T14:43:25;17.90;99.90
30186;DHT22;31152;49.190;8.122;2022-10-19T14:48:37;17.80;99.90
30186;DHT22;31152;49.190;8.122;2022-10-19T14:51:18;17.80;99.90
30186;DHT22;31152;49.190;8.122;2022-10-19T14:53:58;17.70;99.90
30186;DHT22;31152;49.190;8.122;2022-10-19T14:59:37;17.60;99.90
30186;DHT22;31152;49.190;8.122;2022-10-19T15:02:26;17.60;99.90
30186;DHT22;31152;49.190;8.122;2022-10-19T15:04:55;17.60;99.90
30186;DHT22;31152;49.190;8.122;2022-10-19T15:07:39;17.70;99.90
30186;DHT22;31152;49.190;8.122;2022-10-19T15:12:50;18.20;99.90
30186;DHT22;31152;49.190;8.122;2022-10-19T15:15:24;18.60;99.90
30186;DHT22;31152;49.190;8.122;2022-10-19T15:17:55;18.90;99.90
30186;DHT22;31152;49.190;8.122;2022-10-19T15:20:31;19.00;99.90
30186;DHT22;31152;49.190;8.122;2022-10-19T15:23:37;19.10;99.90
30186;DHT22;31152;49.190;8.122;2022-10-19T15:26:27;19.10;99.90
30186;DHT22;31152;49.190;8.122;2022-10-19T15:29:17;19.00;99.90
30186;DHT22;31152;49.190;8.122;2022-10-19T15:31:44;19.00;99.90
30186;DHT22;31152;49.190;8.122;2022-10-19T15:34:27;19.00;99.90
30186;DHT22;31152;49.190;8.122;2022-10-19T15:36:59;19.00;99.90
30186;DHT22;31152;49.190;8.122;2022-10-19T15:39:31;19.10;99.90
30186;DHT22;31152;49.190;8.122;2022-10-19T15:42:35;19.00;99.90
30186;DHT22;31152;49.190;8.122;2022-10-19T15:45:26;19.00;99.90
30186;DHT22;31152;49.190;8.122;2022-10-19T15:50:45;18.70;99.90
30186;DHT22;31152;49.190;8.122;2022-10-19T15:53:21;18.40;99.90
30186;DHT22;31152;49.190;8.122;2022-10-19T15:55:48;18.30;99.90
30186;DHT22;31152;49.190;8.122;2022-10-19T15:58:15;18.10;99.90
30186;DHT22;31152;49.190;8.122;2022-10-19T16:00:42;17.90;99.90
30186;DHT22;31152;49.190;8.122;2022-10-19T16:03:09;17.80;99.90
30186;DHT22;31152;49.190;8.122;2022-10-19T16:05:35;17.60;99.90
30186;DHT22;31152;49.190;8.122;2022-10-19T16:08:03;17.50;99.90
30186;DHT22;31152;49.190;8.122;2022-10-19T16:10:35;17.40;99.90
30186;DHT22;31152;49.190;8.122;2022-10-19T16:13:04;17.30;99.90
30186;DHT22;31152;49.190;8.122;2022-10-19T16:15:33;17.30;99.90
30186;DHT22;31152;49.190;8.122;2022-10-19T16:18:00;17.20;99.90
30186;DHT22;31152;49.190;8.122;2022-10-19T16:20:28;17.10;99.90
30186;DHT22;31152;49.190;8.122;2022-10-19T16:22:56;17.10;99.90
30186;DHT22;31152;49.190;8.122;2022-10-19T16:25:25;17.00;99.90
30186;DHT22;31152;49.190;8.122;2022-10-19T16:27:51;16.90;99.90
30186;DHT22;31152;49.190;8.122;2022-10-19T16:30:18;16.90;99.90
30186;DHT22;31152;49.190;8.122;2022-10-19T16:32:48;16.80;99.90
30186;DHT22;31152;49.190;8.122;2022-10-19T16:35:17;16.80;99.90
30186;DHT22;31152;49.190;8.122;2022-10-19T16:37:44;16.70;99.90
30186;DHT22;31152;49.190;8.122;2022-10-19T16:40:10;16.70;99.90
30186;DHT22;31152;49.190;8.122;2022-10-19T16:42:37;16.70;99.90
30186;DHT22;31152;49.190;8.122;2022-10-19T16:45:07;16.60;99.90
30186;DHT22;31152;49.190;8.122;2022-10-19T16:47:33;16.60;99.90
30186;DHT22;31152;49.190;8.122;2022-10-19T16:50:01;16.60;99.90
30186;DHT22;31152;49.190;8.122;2022-10-19T16:52:29;16.60;99.90
30186;DHT22;31152;49.190;8.122;2022-10-19T16:55:02;16.50;99.90
30186;DHT22;31152;49.190;8.122;2022-10-19T16:57:29;16.50;99.90
30186;DHT22;31152;49.190;8.122;2022-10-19T16:59:55;16.50;99.90
30186;DHT22;31152;49.190;8.122;2022-10-19T17:02:24;16.40;99.90
30186;DHT22;31152;49.190;8.122;2022-10-19T17:04:51;16.40;99.90
30186;DHT22;31152;49.190;8.122;2022-10-19T17:07:18;16.40;99.90
30186;DHT22;31152;49.190;8.122;2022-10-19T17:09:45;16.40;99.90
30186;DHT22;31152;49.190;8.122;2022-10-19T17:12:15;16.30;99.90
30186;DHT22;31152;49.190;8.122;2022-10-19T17:14:42;16.20;99.90
30186;DHT22;31152;49.190;8.122;2022-10-19T17:17:11;16.20;99.90
30186;DHT22;31152;49.190;8.122;2022-10-19T17:19:42;16.10;99.90
30186;DHT22;31152;49.190;8.122;2022-10-19T17:22:09;16.10;99.90
30186;DHT22;31152;49.190;8.122;2022-10-19T17:24:35;16.00;99.90
30186;DHT22;31152;49.190;8.122;2022-10-19T17:27:05;16.00;99.90
30186;DHT22;31152;49.190;8.122;2022-10-19T17:29:31;16.00;99.90
30186;DHT22;31152;49.190;8.122;2022-10-19T17:31:58;16.00;99.90
30186;DHT22;31152;49.190;8.122;2022-10-19T17:34:25;16.00;99.90
30186;DHT22;31152;49.190;8.122;2022-10-19T17:36:52;16.00;99.90
30186;DHT22;31152;49.190;8.122;2022-10-19T17:39:21;16.00;99.90
30186;DHT22;31152;49.190;8.122;2022-10-19T17:41:55;15.90;99.90
30186;DHT22;31152;49.190;8.122;2022-10-19T17:44:28;15.90;99.90
30186;DHT22;31152;49.190;8.122;2022-10-19T17:46:56;15.80;99.90
30186;DHT22;31152;49.190;8.122;2022-10-19T17:49:23;15.80;99.90
30186;DHT22;31152;49.190;8.122;2022-10-19T17:51:51;15.80;99.90
30186;DHT22;31152;49.190;8.122;2022-10-19T17:54:26;15.70;99.90
30186;DHT22;31152;49.190;8.122;2022-10-19T17:56:53;15.70;99.90
30186;DHT22;31152;49.190;8.122;2022-10-19T17:59:20;15.70;99.90
30186;DHT22;31152;49.190;8.122;2022-10-19T18:02:00;15.60;99.90
30186;DHT22;31152;49.190;8.122;2022-10-19T18:04:27;15.60;99.90
30186;DHT22;31152;49.190;8.122;2022-10-19T18:06:54;15.50;99.90
30186;DHT22;31152;49.190;8.122;2022-10-19T18:09:20;15.50;99.90
30186;DHT22;31152;49.190;8.122;2022-10-19T18:11:49;15.40;99.90
30186;DHT22;31152;49.190;8.122;2022-10-19T18:14:16;15.30;99.90
30186;DHT22;31152;49.190;8.122;2022-10-19T18:16:45;15.30;99.90
30186;DHT22;31152;49.190;8.122;2022-10-19T18:19:13;15.20;99.90
30186;DHT22;31152;49.190;8.122;2022-10-19T18:21:42;15.10;99.90
30186;DHT22;31152;49.190;8.122;2022-10-19T18:24:11;15.10;99.90
30186;DHT22;31152;49.190;8.122;2022-10-19T18:26:41;15.00;99.90
30186;DHT22;31152;49.190;8.122;2022-10-19T18:29:16;15.00;99.90